Time;durP1;ratioP1;P1;durP2;ratioP2;P2;SDS_P1;SDS_P2;PMS_P1;PMS_P2;Temp;Humidity;BMP_temperature;BMP_pressure;BME280_temperature;BME280_humidity;BME280_pressure;Samples;Min_cycle;Max_cycle;Signal;HPM_P1;HPM_P2
2023/01/08 00:00:48;;;;;;;6.35;2.17;;;8.10;88.90;;;;;;5032403;28;20025;-69
2023/01/08 00:03:14;;;;;;;3.58;2.28;;;8.20;88.60;;;;;;5028903;28;20029;-69
2023/01/08 00:05:40;;;;;;;4.18;2.30;;;8.30;87.90;;;;;;5031537;28;20076;-69
2023/01/08 00:08:07;;;;;;;4.85;2.28;;;8.20;88.60;;;;;;5020878;28;20044;-69
2023/01/08 00:10:33;;;;;;;3.08;2.10;;;8.30;88.50;;;;;;5031667;28;20034;-69
2023/01/08 00:12:59;;;;;;;4.10;2.25;;;8.20;88.60;;;;;;5025999;28;20041;-69
2023/01/08 00:15:24;;;;;;;4.75;2.55;;;8.20;88.70;;;;;;5031985;28;20035;-69
2023/01/08 00:17:50;;;;;;;5.18;2.65;;;8.20;89.00;;;;;;5027999;28;20056;-70
2023/01/08 00:20:15;;;;;;;4.97;2.40;;;8.20;89.00;;;;;;5029380;28;20029;-69
2023/01/08 00:22:41;;;;;;;3.58;2.15;;;8.30;88.60;;;;;;5030478;28;20058;-69
2023/01/08 00:25:07;;;;;;;5.28;2.35;;;8.30;88.80;;;;;;5032199;28;20466;-69
2023/01/08 00:27:32;;;;;;;3.72;2.15;;;8.30;89.00;;;;;;5031097;28;20030;-69
2023/01/08 00:29:58;;;;;;;3.97;2.22;;;8.20;89.60;;;;;;5031343;28;20129;-69
2023/01/08 00:32:23;;;;;;;5.40;2.33;;;8.30;89.60;;;;;;5032435;28;20045;-69
2023/01/08 00:34:49;;;;;;;4.85;2.40;;;8.20;90.40;;;;;;5030052;28;20497;-69
2023/01/08 00:37:17;;;;;;;3.75;2.10;;;8.10;91.10;;;;;;5031873;28;21206;-69
2023/01/08 00:39:43;;;;;;;5.25;2.35;;;8.00;91.20;;;;;;5026455;28;20039;-69
2023/01/08 00:42:09;;;;;;;5.03;2.58;;;8.10;91.20;;;;;;5027510;28;20120;-68
2023/01/08 00:44:35;;;;;;;4.50;2.40;;;7.90;91.80;;;;;;5032688;28;20033;-69
2023/01/08 00:47:00;;;;;;;5.78;2.42;;;8.00;91.70;;;;;;5026557;28;20052;-69
2023/01/08 00:49:26;;;;;;;5.50;2.60;;;8.00;91.70;;;;;;5028417;28;20525;-69
2023/01/08 00:51:51;;;;;;;3.53;2.38;;;7.90;92.10;;;;;;5029110;28;20037;-69
2023/01/08 00:54:16;;;;;;;7.95;2.80;;;8.00;91.80;;;;;;5027100;28;20485;-70
2023/01/08 00:56:42;;;;;;;5.30;2.50;;;8.00;91.60;;;;;;5027970;28;20086;-69
2023/01/08 00:59:08;;;;;;;4.93;2.40;;;8.00;92.00;;;;;;5025116;28;20350;-69
2023/01/08 01:01:33;;;;;;;5.13;2.17;;;8.00;91.90;;;;;;5028961;28;20124;-70
2023/01/08 01:03:58;;;;;;;3.90;2.40;;;8.10;91.80;;;;;;5031906;28;20041;-69
2023/01/08 01:06:24;;;;;;;4.13;2.20;;;8.00;91.60;;;;;;5024825;28;20034;-69
2023/01/08 01:08:49;;;;;;;4.28;2.60;;;8.10;91.60;;;;;;5029372;28;20041;-69
2023/01/08 01:11:26;;;;;;;5.57;2.67;;;8.10;91.50;;;;;;5023411;28;20058;-69
2023/01/08 01:13:54;;;;;;;3.63;2.30;;;8.10;91.20;;;;;;5025885;28;20040;-69
2023/01/08 01:16:19;;;;;;;4.50;2.58;;;8.20;91.10;;;;;;5029878;28;20072;-69
2023/01/08 01:18:45;;;;;;;4.35;2.35;;;8.10;91.10;;;;;;5023942;28;20535;-69
2023/01/08 01:21:26;;;;;;;4.13;2.35;;;8.10;91.30;;;;;;5030334;28;20107;-69
2023/01/08 01:23:57;;;;;;;5.45;2.50;;;8.20;91.10;;;;;;5030072;28;20017;-69
2023/01/08 01:26:23;;;;;;;4.85;2.42;;;8.20;91.10;;;;;;5030051;28;20040;-69
2023/01/08 01:28:51;;;;;;;4.20;2.10;;;8.30;90.90;;;;;;5029245;28;20095;-70
2023/01/08 01:31:18;;;;;;;6.03;2.60;;;8.30;90.80;;;;;;5031357;28;20025;-69
2023/01/08 01:33:44;;;;;;;4.20;2.22;;;8.30;91.00;;;;;;5028296;28;20384;-69
2023/01/08 01:36:11;;;;;;;4.22;2.03;;;8.30;90.90;;;;;;5027912;28;20040;-69
2023/01/08 01:38:37;;;;;;;5.32;2.38;;;8.30;90.90;;;;;;5030423;28;20128;-69
2023/01/08 01:41:02;;;;;;;5.35;2.00;;;8.30;90.70;;;;;;5028763;28;20522;-69
2023/01/08 01:43:38;;;;;;;4.45;2.40;;;8.40;90.50;;;;;;5028797;28;20071;-69
2023/01/08 01:46:16;;;;;;;3.17;2.25;;;8.40;90.40;;;;;;5032283;28;20470;-69
2023/01/08 01:48:42;;;;;;;4.78;2.47;;;8.40;90.60;;;;;;5028251;28;20044;-69
2023/01/08 01:51:08;;;;;;;6.03;2.30;;;8.40;90.40;;;;;;5036553;28;20037;-70
2023/01/08 01:53:35;;;;;;;3.22;2.08;;;8.40;90.60;;;;;;5027156;28;20526;-69
2023/01/08 01:56:02;;;;;;;4.88;2.30;;;8.40;90.70;;;;;;5025088;28;20025;-70
2023/01/08 01:58:30;;;;;;;7.85;2.75;;;8.50;90.20;;;;;;5027508;28;20042;-69
2023/01/08 02:00:59;;;;;;;4.30;2.40;;;8.50;90.50;;;;;;5024974;28;20029;-69
2023/01/08 02:03:29;;;;;;;4.45;2.40;;;8.50;90.70;;;;;;5034961;28;20417;-69
2023/01/08 02:06:09;;;;;;;4.13;2.25;;;8.60;90.00;;;;;;5022361;28;20029;-69
2023/01/08 02:08:55;;;;;;;4.32;2.67;;;8.60;90.00;;;;;;5027583;28;20033;-70
2023/01/08 02:11:45;;;;;;;4.13;2.38;;;8.60;90.00;;;;;;5026366;28;20029;-69
2023/01/08 02:14:36;;;;;;;2.92;1.98;;;8.60;90.40;;;;;;5021990;28;20386;-70
2023/01/08 02:17:09;;;;;;;4.22;2.40;;;8.60;89.80;;;;;;5024663;28;20463;-69
2023/01/08 02:19:45;;;;;;;5.53;2.47;;;8.50;90.50;;;;;;5024349;28;20049;-69
2023/01/08 02:22:40;;;;;;;4.82;2.10;;;8.60;90.10;;;;;;5020861;28;20125;-69
2023/01/08 02:25:12;;;;;;;3.40;1.90;;;8.60;90.10;;;;;;5029162;28;20485;-69
2023/01/08 02:27:41;;;;;;;3.72;2.08;;;8.60;90.20;;;;;;5029537;28;20108;-69
2023/01/08 02:30:08;;;;;;;3.25;2.10;;;8.60;90.10;;;;;;5027955;28;20039;-69
2023/01/08 02:32:36;;;;;;;4.30;2.03;;;8.60;90.10;;;;;;5030617;28;20104;-70
2023/01/08 02:35:03;;;;;;;3.60;2.03;;;8.60;90.00;;;;;;5020542;28;20026;-69
2023/01/08 02:37:29;;;;;;;3.80;1.83;;;8.60;90.10;;;;;;5029750;28;20025;-69
2023/01/08 02:40:13;;;;;;;4.25;2.22;;;8.60;90.40;;;;;;5029845;28;20072;-69
2023/01/08 02:43:04;;;;;;;3.08;1.90;;;8.60;90.50;;;;;;5031537;28;20470;-69
2023/01/08 02:45:41;;;;;;;4.60;2.20;;;8.60;90.30;;;;;;5025497;28;20034;-69
2023/01/08 02:48:35;;;;;;;3.90;2.08;;;8.60;90.60;;;;;;5027850;28;20416;-69
2023/01/08 02:51:15;;;;;;;3.80;1.77;;;8.60;90.30;;;;;;5028728;28;20037;-69
2023/01/08 02:53:44;;;;;;;5.07;2.45;;;8.60;90.40;;;;;;5028085;28;20116;-69
2023/01/08 02:56:21;;;;;;;4.10;2.40;;;8.50;90.70;;;;;;5027284;28;20076;-69
2023/01/08 02:58:48;;;;;;;3.17;2.13;;;8.50;90.70;;;;;;5026709;28;20104;-69
2023/01/08 03:01:18;;;;;;;4.25;1.90;;;8.60;90.60;;;;;;5028590;28;20424;-69
2023/01/08 03:03:49;;;;;;;7.78;2.28;;;8.60;90.70;;;;;;5022776;28;20035;-69
2023/01/08 03:06:18;;;;;;;3.28;2.00;;;8.60;90.40;;;;;;5025820;28;20030;-69
2023/01/08 03:08:47;;;;;;;3.30;1.75;;;8.60;90.30;;;;;;5027076;28;20037;-69
2023/01/08 03:11:16;;;;;;;4.25;2.10;;;8.60;90.30;;;;;;5027273;28;20079;-69
2023/01/08 03:14:05;;;;;;;4.38;2.45;;;8.60;90.10;;;;;;5023939;28;20389;-70
2023/01/08 03:16:37;;;;;;;4.38;2.25;;;8.60;90.50;;;;;;5029432;28;20104;-69
2023/01/08 03:19:28;;;;;;;4.22;2.17;;;8.60;90.50;;;;;;5024579;28;20086;-69
2023/01/08 03:21:56;;;;;;;3.72;2.25;;;8.60;90.40;;;;;;5032041;28;20517;-69
2023/01/08 03:24:26;;;;;;;5.20;2.33;;;8.60;90.70;;;;;;5033609;28;20114;-70
2023/01/08 03:26:57;;;;;;;3.57;2.20;;;8.60;90.50;;;;;;5033052;28;20426;-70
2023/01/08 03:29:23;;;;;;;4.63;2.10;;;8.60;90.60;;;;;;5033015;28;20037;-70
2023/01/08 03:31:52;;;;;;;5.25;2.20;;;8.70;90.30;;;;;;5033368;28;20473;-70
2023/01/08 03:34:20;;;;;;;3.95;2.40;;;8.70;90.10;;;;;;5028874;28;20354;-69
2023/01/08 03:36:49;;;;;;;5.22;2.40;;;8.70;90.20;;;;;;5032060;28;20033;-69
2023/01/08 03:39:22;;;;;;;6.10;2.30;;;8.80;90.10;;;;;;5031013;28;20533;-71
2023/01/08 03:41:48;;;;;;;5.10;2.33;;;8.80;90.10;;;;;;5031688;28;20120;-69
2023/01/08 03:44:15;;;;;;;4.05;2.00;;;8.70;90.20;;;;;;5027356;28;20104;-69
2023/01/08 03:46:46;;;;;;;3.38;1.88;;;8.70;90.40;;;;;;5026926;28;20377;-69
2023/01/08 03:49:13;;;;;;;6.72;2.30;;;8.70;90.40;;;;;;5027119;28;20370;-70
2023/01/08 03:51:43;;;;;;;3.63;2.05;;;8.70;90.40;;;;;;5031521;28;20394;-69
2023/01/08 03:54:15;;;;;;;5.68;2.30;;;8.80;90.30;;;;;;5030107;28;20039;-69
2023/01/08 03:56:41;;;;;;;4.15;1.98;;;8.90;89.80;;;;;;5031716;28;20052;-69
2023/01/08 03:59:06;;;;;;;3.65;2.25;;;8.90;89.60;;;;;;5026924;28;20033;-70
2023/01/08 04:01:32;;;;;;;3.85;2.20;;;8.90;89.90;;;;;;5028664;28;20033;-69
2023/01/08 04:03:57;;;;;;;3.03;2.03;;;8.80;90.00;;;;;;5026733;28;20467;-69
2023/01/08 04:06:23;;;;;;;3.40;1.83;;;8.80;90.10;;;;;;5029367;28;20068;-69
2023/01/08 04:08:48;;;;;;;4.38;1.90;;;8.90;89.90;;;;;;5029254;28;20049;-69
2023/01/08 04:11:15;;;;;;;4.13;2.25;;;8.90;89.90;;;;;;5031677;28;20087;-69
2023/01/08 04:13:41;;;;;;;4.82;2.30;;;8.90;89.90;;;;;;5027927;28;20030;-69
2023/01/08 04:16:07;;;;;;;4.65;2.30;;;8.90;90.20;;;;;;5027292;28;20060;-69
2023/01/08 04:18:32;;;;;;;5.38;2.22;;;8.90;90.20;;;;;;5029634;28;20095;-69
2023/01/08 04:20:58;;;;;;;3.83;2.17;;;8.90;89.90;;;;;;5030390;28;20035;-69
2023/01/08 04:23:25;;;;;;;6.05;2.30;;;8.90;90.30;;;;;;5021479;28;20037;-69
2023/01/08 04:25:50;;;;;;;3.35;2.05;;;8.80;90.40;;;;;;5029844;28;20099;-69
2023/01/08 04:28:16;;;;;;;8.45;2.30;;;8.90;90.20;;;;;;5026498;28;20472;-69
2023/01/08 04:30:41;;;;;;;5.53;2.35;;;8.90;90.20;;;;;;5028637;28;20448;-69
2023/01/08 04:33:07;;;;;;;3.45;2.30;;;8.80;90.50;;;;;;5027291;28;20064;-69
2023/01/08 04:35:32;;;;;;;3.90;2.30;;;8.70;90.70;;;;;;5028232;28;20052;-69
2023/01/08 04:37:57;;;;;;;4.32;2.42;;;8.80;90.50;;;;;;5018279;28;20021;-69
2023/01/08 04:40:23;;;;;;;4.20;2.40;;;8.70;90.70;;;;;;5023094;28;20375;-69
2023/01/08 04:42:48;;;;;;;4.22;2.45;;;8.80;90.30;;;;;;5031832;28;20120;-69
2023/01/08 04:45:14;;;;;;;5.05;2.40;;;8.80;90.40;;;;;;5024978;28;20484;-69
2023/01/08 04:47:39;;;;;;;3.58;2.13;;;8.80;90.60;;;;;;5029249;28;20060;-69
2023/01/08 04:50:05;;;;;;;3.53;2.10;;;8.70;90.70;;;;;;5021962;28;20079;-69
2023/01/08 04:52:31;;;;;;;3.67;2.17;;;8.70;90.90;;;;;;5026130;28;20462;-69
2023/01/08 04:54:56;;;;;;;3.80;2.08;;;8.60;90.90;;;;;;5029930;28;20052;-69
2023/01/08 04:57:22;;;;;;;4.05;2.15;;;8.50;91.40;;;;;;5027474;28;20048;-70
2023/01/08 04:59:47;;;;;;;5.25;2.38;;;8.60;91.40;;;;;;5024101;28;20045;-69
2023/01/08 05:02:12;;;;;;;4.43;2.55;;;8.60;91.40;;;;;;5028404;28;20049;-69
2023/01/08 05:04:38;;;;;;;4.65;2.03;;;8.60;91.40;;;;;;5024212;28;20366;-69
2023/01/08 05:07:04;;;;;;;4.40;2.40;;;8.60;91.40;;;;;;5031469;28;20482;-69
2023/01/08 05:09:29;;;;;;;4.85;2.03;;;8.50;91.50;;;;;;5022942;28;20080;-69
2023/01/08 05:11:55;;;;;;;4.53;2.42;;;8.50;91.60;;;;;;5025513;28;20373;-69
2023/01/08 05:14:20;;;;;;;4.50;2.40;;;8.50;91.60;;;;;;5019407;28;20026;-69
2023/01/08 05:16:46;;;;;;;3.80;2.28;;;8.50;91.80;;;;;;5029571;28;20025;-69
2023/01/08 05:19:12;;;;;;;5.22;2.33;;;8.50;92.00;;;;;;5024713;28;20462;-69
2023/01/08 05:21:37;;;;;;;4.30;2.13;;;8.40;92.20;;;;;;5028264;28;20053;-70
2023/01/08 05:24:03;;;;;;;5.53;2.50;;;8.40;92.20;;;;;;5026843;28;20037;-69
2023/01/08 05:26:28;;;;;;;5.60;2.20;;;8.40;92.30;;;;;;5030780;28;20132;-69
2023/01/08 05:28:54;;;;;;;4.35;2.30;;;8.30;92.50;;;;;;5025581;28;20031;-70
2023/01/08 05:31:19;;;;;;;5.25;2.25;;;8.40;92.00;;;;;;5028309;28;20025;-70
2023/01/08 05:33:45;;;;;;;4.03;2.30;;;8.40;92.30;;;;;;5026919;28;20036;-71
2023/01/08 05:36:11;;;;;;;3.78;2.40;;;8.40;92.40;;;;;;5028582;28;20148;-70
2023/01/08 05:38:37;;;;;;;3.60;2.22;;;8.40;92.40;;;;;;5028212;28;20045;-71
2023/01/08 05:41:03;;;;;;;5.43;2.55;;;8.30;92.40;;;;;;5028133;28;20045;-70
2023/01/08 05:43:30;;;;;;;6.07;2.83;;;8.30;92.40;;;;;;5030881;28;20452;-70
2023/01/08 05:45:59;;;;;;;4.53;2.42;;;8.40;92.50;;;;;;5023077;28;20037;-71
2023/01/08 05:48:26;;;;;;;4.03;2.50;;;8.40;92.00;;;;;;5028492;28;20051;-70
2023/01/08 05:50:51;;;;;;;4.55;2.17;;;8.40;92.30;;;;;;5027043;28;20026;-71
2023/01/08 05:53:17;;;;;;;3.40;1.90;;;8.40;92.50;;;;;;5028407;28;20045;-71
2023/01/08 05:55:43;;;;;;;7.07;2.40;;;8.50;92.20;;;;;;5026022;28;20029;-70
2023/01/08 05:58:10;;;;;;;4.38;2.20;;;8.40;92.30;;;;;;5028938;28;20547;-71
2023/01/08 06:00:36;;;;;;;5.35;2.63;;;8.30;92.60;;;;;;5026700;28;20021;-70
2023/01/08 06:03:02;;;;;;;3.70;2.10;;;8.30;92.50;;;;;;5025017;28;20088;-70
2023/01/08 06:05:28;;;;;;;3.60;2.17;;;8.30;92.50;;;;;;5022379;28;20490;-71
2023/01/08 06:07:54;;;;;;;3.60;2.40;;;8.30;92.80;;;;;;5017245;28;20025;-71
2023/01/08 06:10:19;;;;;;;3.58;2.15;;;8.40;92.60;;;;;;5026196;28;20373;-71
2023/01/08 06:12:45;;;;;;;7.90;2.45;;;8.30;92.70;;;;;;5029297;28;20038;-71
2023/01/08 06:15:11;;;;;;;4.25;2.42;;;8.30;92.70;;;;;;5025898;28;20492;-71
2023/01/08 06:17:37;;;;;;;4.88;2.30;;;8.40;92.60;;;;;;5025902;28;20351;-71
2023/01/08 06:20:03;;;;;;;4.63;2.55;;;8.40;92.50;;;;;;5027406;28;20037;-71
2023/01/08 06:22:28;;;;;;;4.22;2.20;;;8.40;92.50;;;;;;5024848;28;20056;-71
2023/01/08 06:24:54;;;;;;;4.45;2.38;;;8.40;92.70;;;;;;5023627;28;20079;-71
2023/01/08 06:27:19;;;;;;;3.70;2.20;;;8.30;92.80;;;;;;5029840;28;20033;-70
2023/01/08 06:29:44;;;;;;;5.03;2.50;;;8.40;92.80;;;;;;5022195;28;20060;-70
2023/01/08 06:32:10;;;;;;;3.92;2.35;;;8.40;92.40;;;;;;5027208;28;20021;-71
2023/01/08 06:34:35;;;;;;;4.35;2.50;;;8.50;92.40;;;;;;5026943;28;20458;-71
2023/01/08 06:37:01;;;;;;;5.95;2.70;;;8.40;92.60;;;;;;5027839;28;20072;-71
2023/01/08 06:39:26;;;;;;;4.63;2.42;;;8.50;92.40;;;;;;5024116;28;20064;-71
2023/01/08 06:41:52;;;;;;;3.42;2.33;;;8.40;92.60;;;;;;5027819;28;20405;-71
2023/01/08 06:44:17;;;;;;;3.95;2.47;;;8.30;92.70;;;;;;5029705;28;20080;-71
2023/01/08 06:46:43;;;;;;;3.53;2.10;;;8.20;92.90;;;;;;5025272;28;20041;-71
2023/01/08 06:49:09;;;;;;;4.05;2.28;;;8.30;92.90;;;;;;5030837;28;20358;-71
2023/01/08 06:51:35;;;;;;;5.22;2.35;;;8.30;93.00;;;;;;5032064;28;20109;-71
2023/01/08 06:54:01;;;;;;;5.40;2.30;;;8.30;92.60;;;;;;5026132;28;20029;-71
2023/01/08 06:56:26;;;;;;;4.47;2.30;;;8.30;92.90;;;;;;5029896;28;20033;-71
2023/01/08 06:58:52;;;;;;;4.65;2.30;;;8.40;92.80;;;;;;5021896;28;20498;-71
2023/01/08 07:01:17;;;;;;;4.75;2.25;;;8.40;92.50;;;;;;5028416;28;20110;-71
2023/01/08 07:03:43;;;;;;;3.22;2.13;;;8.50;92.40;;;;;;5026099;28;20108;-71
2023/01/08 07:06:20;;;;;;;4.82;2.10;;;8.60;92.20;;;;;;5025945;28;20025;-72
2023/01/08 07:08:46;;;;;;;4.22;2.35;;;8.60;92.00;;;;;;5024873;28;20061;-72
2023/01/08 07:11:12;;;;;;;4.15;2.28;;;8.60;92.20;;;;;;5030215;28;20037;-72
2023/01/08 07:13:38;;;;;;;3.55;2.20;;;8.50;92.50;;;;;;5031012;28;20037;-72
2023/01/08 07:16:08;;;;;;;6.28;2.40;;;8.60;92.20;;;;;;5027954;28;20083;-72
2023/01/08 07:18:34;;;;;;;3.35;1.98;;;8.60;92.30;;;;;;5021423;28;20422;-72
2023/01/08 07:21:04;;;;;;;6.20;2.10;;;8.60;92.30;;;;;;5026368;28;20029;-72
2023/01/08 07:23:29;;;;;;;4.22;2.38;;;8.70;92.20;;;;;;5029874;28;20045;-72
2023/01/08 07:25:58;;;;;;;4.15;2.47;;;8.60;92.50;;;;;;5030669;28;20036;-72
2023/01/08 07:28:23;;;;;;;3.83;2.30;;;8.60;92.90;;;;;;5023935;28;20036;-72
2023/01/08 07:30:49;;;;;;;4.47;2.22;;;8.70;92.60;;;;;;5030149;28;20041;-72
2023/01/08 07:33:14;;;;;;;4.20;2.15;;;8.70;92.60;;;;;;5031931;28;20052;-72
2023/01/08 07:35:40;;;;;;;5.65;2.40;;;8.60;92.80;;;;;;5032768;28;20087;-72
2023/01/08 07:38:05;;;;;;;7.13;2.63;;;8.60;92.90;;;;;;5030435;28;20029;-72
2023/01/08 07:40:31;;;;;;;3.30;2.13;;;8.70;92.80;;;;;;5025018;28;20038;-72
2023/01/08 07:43:02;;;;;;;3.75;2.33;;;8.60;93.10;;;;;;5032515;28;20052;-72
2023/01/08 07:45:28;;;;;;;4.85;2.33;;;8.70;93.20;;;;;;5024034;28;20037;-72
2023/01/08 07:47:57;;;;;;;5.25;2.63;;;8.60;93.50;;;;;;5032183;28;20041;-72
2023/01/08 07:50:22;;;;;;;4.50;2.17;;;8.60;93.70;;;;;;5026965;28;20187;-71
2023/01/08 07:52:48;;;;;;;4.55;1.95;;;8.60;94.10;;;;;;5030025;28;20073;-72
2023/01/08 07:55:13;;;;;;;4.40;2.42;;;8.60;94.20;;;;;;5031112;28;20040;-72
2023/01/08 07:57:39;;;;;;;4.53;2.42;;;8.50;94.40;;;;;;5031677;28;20394;-72
2023/01/08 08:00:05;;;;;;;3.30;2.30;;;8.60;94.40;;;;;;5026077;28;20401;-72
2023/01/08 08:02:30;;;;;;;3.72;2.20;;;8.50;94.50;;;;;;5031543;28;20030;-72
2023/01/08 08:04:56;;;;;;;6.53;2.63;;;8.60;94.40;;;;;;5026840;28;20503;-72
2023/01/08 08:07:21;;;;;;;4.90;2.50;;;8.50;94.50;;;;;;5024338;28;20033;-72
2023/01/08 08:09:47;;;;;;;3.88;2.25;;;8.60;94.50;;;;;;5026239;28;20076;-72
2023/01/08 08:12:13;;;;;;;5.75;2.72;;;8.50;94.50;;;;;;5031156;28;20432;-72
2023/01/08 08:14:38;;;;;;;5.30;2.55;;;8.60;94.20;;;;;;5031394;28;20031;-72
2023/01/08 08:17:04;;;;;;;5.68;2.78;;;8.60;94.30;;;;;;5026412;28;20028;-72
2023/01/08 08:19:29;;;;;;;4.40;1.90;;;8.60;94.30;;;;;;5027789;28;20055;-72
2023/01/08 08:21:54;;;;;;;4.13;2.40;;;8.60;94.30;;;;;;5028253;28;20050;-72
2023/01/08 08:24:20;;;;;;;4.32;1.92;;;8.60;94.10;;;;;;5029994;28;20547;-73
2023/01/08 08:26:45;;;;;;;5.68;2.20;;;8.70;94.00;;;;;;5030907;28;20036;-72
2023/01/08 08:29:11;;;;;;;4.45;2.22;;;8.60;93.90;;;;;;5030863;28;20060;-72
2023/01/08 08:31:36;;;;;;;6.10;2.38;;;8.60;94.10;;;;;;5021223;28;20465;-72
2023/01/08 08:34:02;;;;;;;4.88;2.38;;;8.70;94.30;;;;;;5022583;28;20723;-72
2023/01/08 08:36:28;;;;;;;4.50;2.38;;;8.70;94.20;;;;;;5025225;28;20111;-72
2023/01/08 08:38:54;;;;;;;4.50;2.28;;;8.70;94.40;;;;;;5025236;28;20034;-73
2023/01/08 08:41:19;;;;;;;4.10;2.30;;;8.70;94.60;;;;;;5026925;28;20346;-72
2023/01/08 08:43:45;;;;;;;4.55;2.50;;;8.70;94.70;;;;;;5027555;28;20434;-72
2023/01/08 08:46:10;;;;;;;4.75;2.40;;;8.70;94.70;;;;;;5028897;28;20120;-72
2023/01/08 08:48:36;;;;;;;4.88;2.40;;;8.70;94.50;;;;;;5022509;28;20037;-72
2023/01/08 08:51:03;;;;;;;4.07;2.38;;;8.70;94.70;;;;;;5027486;28;20029;-72
2023/01/08 08:53:28;;;;;;;5.50;2.53;;;8.70;94.70;;;;;;5020080;28;20069;-72
2023/01/08 08:55:56;;;;;;;6.93;2.50;;;8.80;94.80;;;;;;5029587;28;20057;-72
2023/01/08 08:58:21;;;;;;;5.22;2.13;;;8.70;95.00;;;;;;5028107;28;20044;-72
2023/01/08 09:00:47;;;;;;;3.35;2.17;;;8.70;95.10;;;;;;5027593;28;20026;-72
2023/01/08 09:03:14;;;;;;;5.72;2.47;;;8.70;95.20;;;;;;5027774;28;20064;-72
2023/01/08 09:05:41;;;;;;;5.43;2.28;;;8.70;95.20;;;;;;5025930;28;20378;-72
2023/01/08 09:08:07;;;;;;;4.38;2.40;;;8.70;95.30;;;;;;5019096;28;20124;-72
2023/01/08 09:10:35;;;;;;;3.22;2.17;;;8.70;95.60;;;;;;5020047;28;20124;-72
2023/01/08 09:13:00;;;;;;;3.55;1.83;;;8.70;95.70;;;;;;5028241;28;20033;-72
2023/01/08 09:15:25;;;;;;;4.60;2.53;;;8.70;95.80;;;;;;5023303;28;20576;-72
2023/01/08 09:17:53;;;;;;;5.35;2.63;;;8.60;95.90;;;;;;5026773;28;20033;-73
2023/01/08 09:20:18;;;;;;;6.43;2.80;;;8.60;96.30;;;;;;5027668;28;20044;-72
2023/01/08 09:22:44;;;;;;;4.68;2.35;;;8.60;96.40;;;;;;5027405;28;20049;-72
2023/01/08 09:25:09;;;;;;;6.25;2.67;;;8.60;96.40;;;;;;5032057;28;20064;-71
2023/01/08 09:27:35;;;;;;;5.40;2.80;;;8.50;96.70;;;;;;5030969;28;20028;-72
2023/01/08 09:30:00;;;;;;;8.00;2.60;;;8.50;96.70;;;;;;5029099;28;20433;-72
2023/01/08 09:32:26;;;;;;;4.38;2.40;;;8.50;96.80;;;;;;5027809;28;20037;-71
2023/01/08 09:34:51;;;;;;;6.03;2.80;;;8.50;97.00;;;;;;5025283;28;20052;-71
2023/01/08 09:37:17;;;;;;;6.30;2.60;;;8.50;97.00;;;;;;5026190;28;20507;-72
2023/01/08 09:39:42;;;;;;;32.70;20.42;;;8.50;97.20;;;;;;5023929;28;20087;-71
2023/01/08 09:42:11;;;;;;;7.80;5.53;;;8.50;97.30;;;;;;5019284;28;20520;-72
2023/01/08 09:44:39;;;;;;;4.75;2.85;;;8.40;97.30;;;;;;5030426;28;20025;-71
2023/01/08 09:47:19;;;;;;;7.28;2.88;;;8.50;97.30;;;;;;5036576;28;20033;-72
2023/01/08 09:49:46;;;;;;;5.25;2.90;;;8.50;97.20;;;;;;5024171;28;20532;-71
2023/01/08 09:52:13;;;;;;;6.85;4.15;;;8.40;97.40;;;;;;5027260;28;20045;-72
2023/01/08 09:54:39;;;;;;;6.65;5.13;;;8.40;97.70;;;;;;5023058;28;20286;-71
2023/01/08 09:57:09;;;;;;;5.28;3.85;;;8.40;97.90;;;;;;5026322;28;20029;-69
2023/01/08 09:59:34;;;;;;;5.40;3.20;;;8.40;98.10;;;;;;5028284;28;20492;-71
2023/01/08 10:02:00;;;;;;;6.78;3.13;;;8.40;98.30;;;;;;5027677;28;20065;-72
2023/01/08 10:04:28;;;;;;;5.80;3.08;;;8.30;98.50;;;;;;5021434;28;20037;-73
2023/01/08 10:06:58;;;;;;;5.68;2.72;;;8.30;98.60;;;;;;5016248;28;20036;-72
2023/01/08 10:09:31;;;;;;;5.28;2.80;;;8.30;98.60;;;;;;5022497;28;20404;-72
2023/01/08 10:12:00;;;;;;;4.25;2.63;;;8.30;98.70;;;;;;5023758;28;20044;-71
2023/01/08 10:14:38;;;;;;;5.97;3.40;;;8.40;98.70;;;;;;5024117;28;20393;-72
2023/01/08 10:17:19;;;;;;;7.32;3.25;;;8.30;98.70;;;;;;5023306;28;20041;-72
2023/01/08 10:19:44;;;;;;;5.88;3.10;;;8.30;98.70;;;;;;5026158;28;20588;-73
2023/01/08 10:22:15;;;;;;;5.85;2.97;;;8.30;98.80;;;;;;5021890;28;20500;-70
2023/01/08 10:24:42;;;;;;;7.22;3.65;;;8.30;98.90;;;;;;5019570;28;20025;-70
2023/01/08 10:27:25;;;;;;;5.80;3.15;;;8.30;98.90;;;;;;5029096;28;20124;-70
2023/01/08 10:29:51;;;;;;;6.20;3.53;;;8.30;98.90;;;;;;5019891;28;20034;-72
2023/01/08 10:32:33;;;;;;;8.02;3.60;;;8.30;99.00;;;;;;5020496;28;20041;-72
2023/01/08 10:35:03;;;;;;;7.05;3.55;;;8.40;99.00;;;;;;5023862;28;20037;-72
2023/01/08 10:37:41;;;;;;;5.53;3.17;;;8.50;99.00;;;;;;5021594;28;20041;-72
2023/01/08 10:40:32;;;;;;;5.60;3.63;;;8.60;99.00;;;;;;5017056;28;20409;-71
2023/01/08 10:43:14;;;;;;;9.35;4.13;;;8.60;98.90;;;;;;5026779;28;20049;-72
2023/01/08 10:45:42;;;;;;;6.00;3.65;;;8.70;98.90;;;;;;5020926;28;20080;-71
2023/01/08 10:48:16;;;;;;;5.97;3.22;;;8.70;98.90;;;;;;5025578;28;20034;-74
2023/01/08 10:50:41;;;;;;;8.68;4.18;;;8.80;98.80;;;;;;5021848;28;20115;-71
2023/01/08 10:53:23;;;;;;;12.60;6.07;;;8.80;98.80;;;;;;5026330;28;20462;-71
2023/01/08 10:55:57;;;;;;;9.82;5.43;;;8.90;98.80;;;;;;5028380;28;20029;-71
2023/01/08 10:58:23;;;;;;;5.60;3.90;;;8.90;98.70;;;;;;5028083;28;20037;-71
2023/01/08 11:00:49;;;;;;;10.10;3.47;;;8.90;98.60;;;;;;5022113;28;20045;-72
2023/01/08 11:03:27;;;;;;;7.63;3.55;;;8.80;98.50;;;;;;5027579;28;20037;-69
2023/01/08 11:05:53;;;;;;;6.18;3.30;;;8.80;98.60;;;;;;5022450;28;20045;-71
2023/01/08 11:08:20;;;;;;;5.72;3.30;;;8.80;98.40;;;;;;5025220;28;20045;-70
2023/01/08 11:11:00;;;;;;;8.10;3.22;;;8.80;98.40;;;;;;5025208;28;20112;-70
2023/01/08 11:13:27;;;;;;;6.60;3.42;;;9.00;98.30;;;;;;5017658;28;20501;-70
2023/01/08 11:16:03;;;;;;;5.25;2.90;;;9.20;97.80;;;;;;5027169;28;20048;-71
2023/01/08 11:18:28;;;;;;;5.60;2.88;;;9.20;97.30;;;;;;5023548;28;20429;-70
2023/01/08 11:21:07;;;;;;;4.57;2.40;;;9.30;97.00;;;;;;5018587;28;20041;-71
2023/01/08 11:23:32;;;;;;;4.55;2.50;;;9.10;96.70;;;;;;5024854;28;20131;-70
2023/01/08 11:26:03;;;;;;;4.30;2.60;;;8.90;96.90;;;;;;5023220;28;20811;-71
2023/01/08 11:28:45;;;;;;;4.35;2.35;;;8.80;97.00;;;;;;5015434;28;20034;-71
2023/01/08 11:31:20;;;;;;;4.95;2.42;;;8.90;97.10;;;;;;5027511;28;20394;-71
2023/01/08 11:33:49;;;;;;;4.70;2.47;;;8.80;97.20;;;;;;5021149;28;20111;-71
2023/01/08 11:36:35;;;;;;;3.63;2.10;;;8.90;97.50;;;;;;5026971;28;20025;-71
2023/01/08 11:39:01;;;;;;;9.32;2.75;;;9.00;97.50;;;;;;5025538;28;20033;-71
2023/01/08 11:41:52;;;;;;;4.90;2.45;;;9.10;97.40;;;;;;5027292;28;20033;-71
2023/01/08 11:44:23;;;;;;;3.70;2.00;;;9.40;97.60;;;;;;5025328;28;20029;-72
2023/01/08 11:46:55;;;;;;;4.80;2.38;;;9.80;97.30;;;;;;5032190;28;20046;-72
2023/01/08 11:49:41;;;;;;;3.58;2.05;;;9.90;96.60;;;;;;5021759;28;20069;-72
2023/01/08 11:52:17;;;;;;;4.95;2.40;;;10.10;96.10;;;;;;5024903;28;20386;-72
2023/01/08 11:55:00;;;;;;;2.75;1.65;;;10.30;95.60;;;;;;5026306;28;22278;-71
2023/01/08 11:57:37;;;;;;;6.47;1.90;;;10.50;95.30;;;;;;5017859;28;20416;-71
2023/01/08 12:00:18;;;;;;;2.85;1.40;;;10.50;93.80;;;;;;5021233;28;20041;-71
2023/01/08 12:03:02;;;;;;;3.03;1.55;;;10.70;92.30;;;;;;5032488;28;20041;-71
2023/01/08 12:05:46;;;;;;;2.90;1.55;;;10.40;92.90;;;;;;5028928;28;20030;-71
2023/01/08 12:08:33;;;;;;;3.63;1.58;;;10.30;93.30;;;;;;5027972;28;20061;-71
2023/01/08 12:11:25;;;;;;;2.30;1.45;;;10.10;93.50;;;;;;5034172;28;20037;-71
2023/01/08 12:14:26;;;;;;;4.78;1.45;;;10.00;93.70;;;;;;5022681;28;20293;-71
2023/01/08 12:17:10;;;;;;;3.25;1.40;;;10.00;94.10;;;;;;5021150;28;20021;-71
2023/01/08 12:19:56;;;;;;;3.20;1.42;;;10.20;93.80;;;;;;5031062;28;20033;-71
2023/01/08 12:22:58;;;;;;;3.10;1.40;;;10.40;93.50;;;;;;5024286;28;20037;-71
2023/01/08 12:25:42;;;;;;;2.80;1.38;;;10.20;92.70;;;;;;5023686;28;20120;-71
2023/01/08 12:28:46;;;;;;;1.85;1.02;;;10.40;92.70;;;;;;5028433;28;20029;-71
2023/01/08 12:31:12;;;;;;;2.88;1.10;;;10.60;91.40;;;;;;5033192;28;20021;-71
2023/01/08 12:33:49;;;;;;;2.38;0.93;;;10.80;90.80;;;;;;5027048;28;20022;-71
2023/01/08 12:36:23;;;;;;;1.73;1.02;;;10.90;89.80;;;;;;5023867;28;20029;-71
2023/01/08 12:39:05;;;;;;;0.90;0.70;;;10.90;89.00;;;;;;5032128;28;20055;-71
2023/01/08 12:41:33;;;;;;;1.98;0.85;;;10.90;88.70;;;;;;5030841;28;20116;-71
2023/01/08 12:44:03;;;;;;;1.02;0.65;;;10.70;87.50;;;;;;5031351;28;20029;-71
2023/01/08 12:46:34;;;;;;;1.67;0.80;;;10.60;87.90;;;;;;5031808;28;20033;-71
2023/01/08 12:49:03;;;;;;;0.93;0.50;;;10.60;87.70;;;;;;5031471;28;20034;-71
2023/01/08 12:51:31;;;;;;;2.90;0.90;;;10.50;87.60;;;;;;5030150;28;20036;-71
2023/01/08 12:54:11;;;;;;;1.20;0.80;;;10.40;87.60;;;;;;5018741;28;20033;-71
2023/01/08 12:56:48;;;;;;;1.58;0.70;;;10.30;86.10;;;;;;5027049;28;20018;-71
2023/01/08 12:59:22;;;;;;;3.05;0.90;;;10.30;85.80;;;;;;5025688;28;20117;-71
2023/01/08 13:02:03;;;;;;;2.15;0.60;;;10.20;86.40;;;;;;5023069;28;20036;-71
2023/01/08 13:04:45;;;;;;;2.05;0.80;;;10.20;86.80;;;;;;5022580;28;20497;-71
2023/01/08 13:07:18;;;;;;;3.58;0.80;;;10.10;84.00;;;;;;5028245;28;20462;-71